createdAt,value
2023-05-21T00:01:08.262Z,4.75
2023-05-21T00:03:52.943Z,4.45
2023-05-21T00:06:25.515Z,4.67
2023-05-21T00:09:09.458Z,4.70
2023-05-21T00:11:42.051Z,4.75
2023-05-21T00:14:26.787Z,4.78
2023-05-21T00:17:08.824Z,4.50
2023-05-21T00:19:51.956Z,4.28
2023-05-21T00:22:36.467Z,4.92
2023-05-21T00:25:09.667Z,4.67
2023-05-21T00:27:55.537Z,4.45
2023-05-21T00:30:28.169Z,4.70
2023-05-21T00:33:14.090Z,4.12
2023-05-21T00:35:46.592Z,4.40
2023-05-21T00:38:28.748Z,4.50
2023-05-21T00:41:13.183Z,4.80
2023-05-21T00:43:46.839Z,3.95
2023-05-21T00:46:31.598Z,4.35
2023-05-21T00:49:04.296Z,4.22
2023-05-21T00:51:46.361Z,4.60
2023-05-21T00:54:19.191Z,4.50
2023-05-21T00:57:02.675Z,4.67
2023-05-21T00:59:48.235Z,4.62
2023-05-21T01:02:32.332Z,4.15
2023-05-21T01:07:51.481Z,4.00
2023-05-21T01:10:24.856Z,4.05
2023-05-21T01:13:09.032Z,4.10
2023-05-21T01:15:42.067Z,4.90
2023-05-21T01:18:24.252Z,4.87
2023-05-21T01:21:07.736Z,6.35
2023-05-21T01:23:41.106Z,5.30
2023-05-21T01:26:26.125Z,4.58
2023-05-21T01:29:08.291Z,5.30
2023-05-21T01:31:55.723Z,5.03
2023-05-21T01:34:44.936Z,5.42
2023-05-21T01:37:23.292Z,4.97
2023-05-21T01:40:28.757Z,4.87
2023-05-21T01:43:02.750Z,4.93
2023-05-21T01:45:48.478Z,5.00
2023-05-21T01:48:22.171Z,4.62
2023-05-21T01:51:07.018Z,4.65
2023-05-21T01:53:40.794Z,5.58
2023-05-21T01:56:26.217Z,5.87
2023-05-21T01:58:59.737Z,5.60
2023-05-21T02:01:42.465Z,6.42
2023-05-21T02:04:26.580Z,5.70
2023-05-21T02:06:59.248Z,5.75
2023-05-21T02:09:43.396Z,5.85
2023-05-21T02:12:15.833Z,6.28
2023-05-21T02:15:00.006Z,6.25
2023-05-21T02:17:34.543Z,7.08
2023-05-21T02:20:19.744Z,7.10
2023-05-21T02:22:52.300Z,7.00
2023-05-21T02:25:36.070Z,6.00
2023-05-21T02:28:08.832Z,6.40
2023-05-21T02:30:52.871Z,6.25
2023-05-21T02:33:26.232Z,6.12
2023-05-21T02:36:13.230Z,6.08
2023-05-21T02:38:46.780Z,7.08
2023-05-21T02:41:31.616Z,7.08
2023-05-21T02:44:04.183Z,6.47
2023-05-21T02:46:46.553Z,6.50
2023-05-21T02:49:31.902Z,6.72
2023-05-21T02:52:16.021Z,6.67
2023-05-21T02:54:59.485Z,6.47
2023-05-21T02:57:33.676Z,7.15
2023-05-21T03:00:17.622Z,6.40
2023-05-21T03:03:02.321Z,7.25
2023-05-21T03:05:46.043Z,7.25
2023-05-21T03:08:18.667Z,6.37
2023-05-21T03:11:03.256Z,6.17
2023-05-21T03:13:36.035Z,6.90
2023-05-21T03:16:18.714Z,6.85
2023-05-21T03:19:01.214Z,6.47
2023-05-21T03:21:35.146Z,6.47
2023-05-21T03:24:18.854Z,6.75
2023-05-21T03:26:51.896Z,6.40
2023-05-21T03:29:36.352Z,6.67
2023-05-21T03:32:09.408Z,6.35
2023-05-21T03:34:54.510Z,6.95
2023-05-21T03:37:26.917Z,8.73
2023-05-21T03:40:11.868Z,6.85
2023-05-21T03:42:55.474Z,6.80
2023-05-21T03:45:28.224Z,6.80
2023-05-21T03:48:12.031Z,7.95
2023-05-21T03:50:44.662Z,6.83
2023-05-21T03:53:26.904Z,6.22
2023-05-21T03:56:11.245Z,6.05
2023-05-21T03:58:44.174Z,7.05
2023-05-21T04:01:28.739Z,5.92
2023-05-21T04:04:02.509Z,5.92
2023-05-21T04:06:46.260Z,5.72
2023-05-21T04:09:18.920Z,6.72
2023-05-21T04:12:01.032Z,5.97
2023-05-21T04:14:34.680Z,6.25
2023-05-21T04:17:19.467Z,5.90
2023-05-21T04:19:52.463Z,6.60
2023-05-21T04:22:36.602Z,6.25
2023-05-21T04:25:09.715Z,6.15
2023-05-21T04:27:55.826Z,6.58
2023-05-21T04:30:37.821Z,6.00
2023-05-21T04:33:10.456Z,6.42
2023-05-21T04:35:54.113Z,6.33
2023-05-21T04:38:27.096Z,6.10
2023-05-21T04:41:10.964Z,5.87
2023-05-21T04:43:55.579Z,5.50
2023-05-21T04:46:31.088Z,6.10
2023-05-21T04:49:05.435Z,6.78
2023-05-21T04:51:38.105Z,5.78
2023-05-21T04:54:21.736Z,5.20
2023-05-21T04:56:55.432Z,6.20
2023-05-21T04:59:39.650Z,6.20
2023-05-21T05:02:12.210Z,5.53
2023-05-21T05:04:56.959Z,6.70
2023-05-21T05:07:29.531Z,5.17
2023-05-21T05:10:13.517Z,5.22
2023-05-21T05:12:46.113Z,6.83
2023-05-21T05:15:28.220Z,5.90
2023-05-21T05:18:01.231Z,4.80
2023-05-21T05:20:44.894Z,4.95
2023-05-21T05:23:17.597Z,5.08
2023-05-21T05:26:01.996Z,5.62
2023-05-21T05:28:34.626Z,4.05
2023-05-21T05:31:18.311Z,4.58
2023-05-21T05:33:51.020Z,4.70
2023-05-21T05:36:33.903Z,4.55
2023-05-21T05:39:08.180Z,6.15
2023-05-21T05:41:52.024Z,5.15
2023-05-21T05:44:26.599Z,4.37
2023-05-21T05:47:11.633Z,4.70
2023-05-21T05:49:44.905Z,4.08
2023-05-21T05:52:17.571Z,4.30
2023-05-21T05:55:01.574Z,3.83
2023-05-21T05:57:34.101Z,3.83
2023-05-21T06:00:20.053Z,4.90
2023-05-21T06:02:52.882Z,4.12
2023-05-21T06:05:36.896Z,3.72
2023-05-21T06:08:20.788Z,3.80
2023-05-21T06:10:53.557Z,3.40
2023-05-21T06:13:36.164Z,3.77
2023-05-21T06:16:10.296Z,3.50
2023-05-21T06:18:54.214Z,3.12
2023-05-21T06:21:28.109Z,3.08
2023-05-21T06:24:10.434Z,3.10
2023-05-21T06:26:52.947Z,3.25
2023-05-21T06:29:25.915Z,3.25
2023-05-21T06:32:10.623Z,3.02
2023-05-21T06:34:44.429Z,2.50
2023-05-21T06:37:28.198Z,2.40
2023-05-21T06:40:00.926Z,2.30
2023-05-21T06:42:44.794Z,2.22
2023-05-21T06:45:25.204Z,3.58
2023-05-21T06:48:09.061Z,2.55
2023-05-21T06:50:53.912Z,2.62
2023-05-21T06:53:27.009Z,3.40
2023-05-21T06:56:17.581Z,2.92
2023-05-21T06:58:51.057Z,2.40
2023-05-21T07:01:34.562Z,2.90
2023-05-21T07:04:16.671Z,3.35
2023-05-21T07:06:50.043Z,2.70
2023-05-21T07:09:34.249Z,3.15
2023-05-21T07:12:07.179Z,2.90
2023-05-21T07:14:49.356Z,2.77
2023-05-21T07:17:32.615Z,3.05
2023-05-21T07:20:08.028Z,2.65
2023-05-21T07:22:54.700Z,2.20
2023-05-21T07:25:37.223Z,2.58
2023-05-21T07:28:10.214Z,2.55
2023-05-21T07:30:52.421Z,2.50
2023-05-21T07:33:26.775Z,4.47
2023-05-21T07:36:09.020Z,2.87
2023-05-21T07:38:42.627Z,2.37
2023-05-21T07:41:24.935Z,2.95
2023-05-21T07:43:58.156Z,2.30
2023-05-21T07:46:41.747Z,2.70
2023-05-21T07:49:17.192Z,2.62
2023-05-21T07:52:02.255Z,2.25
2023-05-21T07:54:34.897Z,5.83
2023-05-21T07:57:18.579Z,2.72
2023-05-21T07:59:56.634Z,2.98
2023-05-21T08:02:41.296Z,2.70
2023-05-21T08:05:14.404Z,5.58
2023-05-21T08:07:59.490Z,2.95
2023-05-21T08:10:32.774Z,2.77
2023-05-21T08:13:21.044Z,2.40
2023-05-21T08:16:05.095Z,3.10
2023-05-21T08:18:37.903Z,2.20
2023-05-21T08:21:20.103Z,2.50
2023-05-21T08:23:54.594Z,10.75
2023-05-21T08:26:38.337Z,2.40
2023-05-21T08:29:10.931Z,4.08
2023-05-21T08:31:54.637Z,2.37
2023-05-21T08:34:38.168Z,2.00
2023-05-21T08:37:26.617Z,2.52
2023-05-21T08:40:04.436Z,2.47
2023-05-21T08:42:50.385Z,2.22
2023-05-21T08:45:41.755Z,2.00
2023-05-21T08:48:17.596Z,2.15
2023-05-21T08:51:04.573Z,2.92
2023-05-21T08:53:50.740Z,2.25
2023-05-21T08:56:24.907Z,1.95
2023-05-21T08:59:11.581Z,2.17
2023-05-21T09:01:47.209Z,2.50
2023-05-21T09:04:43.963Z,2.00
2023-05-21T09:07:17.229Z,2.00
2023-05-21T09:10:09.759Z,2.17
2023-05-21T09:12:54.952Z,1.90
2023-05-21T09:15:28.279Z,2.00
2023-05-21T09:18:11.077Z,1.87
2023-05-21T09:21:00.224Z,2.10
2023-05-21T09:23:34.491Z,4.40
2023-05-21T09:26:16.896Z,2.00
2023-05-21T09:28:50.094Z,2.52
2023-05-21T09:31:35.048Z,2.72
2023-05-21T09:34:07.861Z,1.82
2023-05-21T09:36:52.280Z,2.87
2023-05-21T09:39:31.989Z,2.20
2023-05-21T09:42:20.217Z,1.80
2023-05-21T09:44:54.104Z,2.47
2023-05-21T09:47:27.215Z,2.35
2023-05-21T09:50:01.655Z,2.33
2023-05-21T09:52:45.877Z,2.73
2023-05-21T09:55:19.101Z,2.52
2023-05-21T09:58:04.829Z,2.20
2023-05-21T10:00:47.033Z,2.20
2023-05-21T10:03:33.096Z,2.33
2023-05-21T10:06:07.554Z,2.77
2023-05-21T10:08:54.922Z,2.37
2023-05-21T10:11:29.886Z,2.17
2023-05-21T10:14:20.625Z,2.15
2023-05-21T10:17:06.086Z,2.70
2023-05-21T10:19:40.001Z,3.05
2023-05-21T10:22:22.058Z,2.25
2023-05-21T10:24:55.586Z,1.90
2023-05-21T10:27:42.716Z,2.50
2023-05-21T10:30:27.332Z,2.50
2023-05-21T10:33:09.687Z,2.67
2023-05-21T10:35:42.310Z,2.50
2023-05-21T10:38:24.414Z,2.60
2023-05-21T10:40:58.241Z,1.60
2023-05-21T10:44:11.319Z,2.72
2023-05-21T10:47:01.748Z,2.52
2023-05-21T10:50:04.388Z,2.17
2023-05-21T10:53:20.273Z,3.30
2023-05-21T10:56:04.731Z,2.62
2023-05-21T10:59:16.599Z,2.65
2023-05-21T11:02:02.189Z,2.98
2023-05-21T11:04:46.078Z,3.17
2023-05-21T11:07:21.553Z,3.30
2023-05-21T11:10:33.567Z,3.20
2023-05-21T11:13:19.507Z,3.25
2023-05-21T11:16:05.537Z,2.47
2023-05-21T11:18:50.780Z,3.42
2023-05-21T11:21:25.836Z,2.72
2023-05-21T11:24:11.290Z,3.33
2023-05-21T11:26:57.058Z,3.25
2023-05-21T11:29:41.819Z,2.80
2023-05-21T11:32:15.847Z,3.85
2023-05-21T11:35:04.566Z,3.27
2023-05-21T11:37:50.972Z,2.17
2023-05-21T11:40:28.569Z,2.10
2023-05-21T11:43:12.451Z,2.87
2023-05-21T11:45:47.576Z,2.30
2023-05-21T11:48:33.439Z,2.67
2023-05-21T11:51:06.675Z,1.72
2023-05-21T11:53:52.201Z,2.10
2023-05-21T11:56:25.117Z,1.15
2023-05-21T11:59:18.649Z,2.65
2023-05-21T12:02:00.512Z,1.80
2023-05-21T12:04:36.024Z,2.50
2023-05-21T12:07:22.350Z,1.95
2023-05-21T12:09:55.844Z,1.50
2023-05-21T12:12:54.015Z,4.53
2023-05-21T12:15:26.523Z,1.22
2023-05-21T12:17:59.554Z,2.20
2023-05-21T12:20:45.985Z,1.22
2023-05-21T12:23:26.748Z,1.87
2023-05-21T12:26:10.738Z,2.33
2023-05-21T12:28:43.579Z,2.17
2023-05-21T12:31:27.863Z,2.10
2023-05-21T12:34:02.522Z,2.20
2023-05-21T12:36:48.475Z,2.55
2023-05-21T12:39:21.639Z,2.42
2023-05-21T12:42:05.440Z,2.25
2023-05-21T12:44:48.952Z,2.83
2023-05-21T12:47:33.453Z,2.20
2023-05-21T12:50:08.183Z,3.37
2023-05-21T12:52:50.211Z,2.98
2023-05-21T12:55:26.095Z,2.95
2023-05-21T12:58:12.072Z,3.05
2023-05-21T13:00:45.736Z,2.37
2023-05-21T13:03:29.916Z,4.85
2023-05-21T13:06:15.073Z,2.92
2023-05-21T13:08:59.116Z,2.80
2023-05-21T13:11:31.772Z,2.70
2023-05-21T13:14:15.746Z,1.92
2023-05-21T13:16:49.193Z,2.40
2023-05-21T13:19:31.555Z,2.85
2023-05-21T13:22:05.320Z,2.37
2023-05-21T13:24:49.269Z,2.02
2023-05-21T13:27:22.062Z,1.72
2023-05-21T13:30:08.717Z,3.72
2023-05-21T13:35:15.602Z,1.90
2023-05-21T13:38:00.838Z,1.50
2023-05-21T13:40:33.554Z,1.90
2023-05-21T13:43:18.181Z,2.47
2023-05-21T13:45:51.953Z,1.75
2023-05-21T13:48:34.125Z,2.47
2023-05-21T13:51:06.701Z,1.65
2023-05-21T13:53:51.267Z,2.55
2023-05-21T13:56:34.367Z,1.90
2023-05-21T13:59:07.182Z,1.80
2023-05-21T14:01:50.112Z,5.08
2023-05-21T14:04:34.365Z,2.30
2023-05-21T14:07:07.676Z,2.55
2023-05-21T14:09:49.949Z,2.15
2023-05-21T14:12:22.575Z,3.85
2023-05-21T14:14:54.929Z,4.00
2023-05-21T14:17:27.367Z,2.50
2023-05-21T14:20:11.535Z,3.02
2023-05-21T14:22:55.181Z,4.08
2023-05-21T14:25:27.699Z,2.25
2023-05-21T14:28:30.673Z,3.30
2023-05-21T14:31:14.608Z,2.08
2023-05-21T14:33:47.325Z,1.85
2023-05-21T14:36:31.308Z,1.77
2023-05-21T14:39:04.195Z,1.90
2023-05-21T14:41:47.928Z,1.72
2023-05-21T14:44:20.513Z,1.62
2023-05-21T14:47:02.732Z,3.25
2023-05-21T14:49:35.505Z,1.87
2023-05-21T14:52:18.966Z,1.55
2023-05-21T14:55:02.656Z,2.00
2023-05-21T14:57:35.853Z,1.57
2023-05-21T15:00:09.056Z,1.57
2023-05-21T15:02:41.658Z,2.15
2023-05-21T15:05:28.190Z,2.77
2023-05-21T15:08:10.536Z,1.37
2023-05-21T15:10:43.256Z,1.80
2023-05-21T15:13:27.366Z,1.62
2023-05-21T15:15:59.954Z,2.25
2023-05-21T15:18:43.481Z,1.50
2023-05-21T15:21:16.053Z,2.20
2023-05-21T15:24:00.371Z,1.98
2023-05-21T15:26:46.064Z,2.02
2023-05-21T15:29:18.591Z,2.33
2023-05-21T15:32:02.172Z,2.47
2023-05-21T15:37:06.902Z,2.25
2023-05-21T15:39:50.680Z,2.27
2023-05-21T15:42:23.333Z,2.65
2023-05-21T15:45:08.001Z,1.70
2023-05-21T15:47:42.863Z,2.00
2023-05-21T15:50:26.820Z,2.00
2023-05-21T15:53:12.025Z,2.12
2023-05-21T15:58:18.003Z,1.80
2023-05-21T16:01:03.340Z,2.12
2023-05-21T16:03:36.043Z,2.77
2023-05-21T16:06:20.110Z,4.53
2023-05-21T16:08:52.583Z,2.50
2023-05-21T16:11:34.624Z,2.33
2023-05-21T16:14:07.183Z,1.87
2023-05-21T16:16:50.751Z,2.37
2023-05-21T16:19:23.637Z,2.40
2023-05-21T16:22:05.988Z,2.10
2023-05-21T16:24:51.715Z,2.30
2023-05-21T16:27:24.241Z,2.10
2023-05-21T16:30:08.431Z,2.50
2023-05-21T16:32:52.053Z,1.50
2023-05-21T16:35:36.310Z,2.75
2023-05-21T16:38:09.294Z,2.27
2023-05-21T16:40:51.360Z,1.90
2023-05-21T16:43:36.350Z,1.90
2023-05-21T16:46:08.932Z,1.82
2023-05-21T16:48:51.306Z,1.62
2023-05-21T16:51:36.306Z,1.80
2023-05-21T16:54:08.869Z,1.98
2023-05-21T16:56:51.111Z,2.20
2023-05-21T16:59:23.930Z,2.20
2023-05-21T17:02:06.266Z,2.50
2023-05-21T17:04:48.906Z,2.00
2023-05-21T17:07:33.297Z,2.60
2023-05-21T17:10:07.339Z,2.30
2023-05-21T17:12:51.420Z,1.67
2023-05-21T17:15:35.469Z,1.90
2023-05-21T17:18:08.459Z,2.10
2023-05-21T17:20:50.736Z,1.90
2023-05-21T17:23:23.639Z,1.87
2023-05-21T17:26:09.324Z,2.30
2023-05-21T17:28:41.866Z,2.22
2023-05-21T17:31:24.402Z,1.70
2023-05-21T17:34:06.585Z,2.02
2023-05-21T17:36:39.049Z,2.27
2023-05-21T17:39:21.925Z,2.58
2023-05-21T17:41:54.490Z,2.75
2023-05-21T17:44:39.744Z,2.42
2023-05-21T17:47:12.717Z,2.20
2023-05-21T17:49:56.198Z,2.30
2023-05-21T17:52:28.901Z,2.27
2023-05-21T17:55:11.858Z,2.00
2023-05-21T17:57:44.692Z,2.77
2023-05-21T18:00:28.104Z,2.65
2023-05-21T18:03:10.173Z,2.30
2023-05-21T18:05:42.681Z,2.30
2023-05-21T18:08:24.981Z,2.58
2023-05-21T18:10:58.034Z,2.20
2023-05-21T18:13:41.719Z,2.72
2023-05-21T18:16:25.584Z,2.83
2023-05-21T18:19:10.903Z,2.30
2023-05-21T18:21:43.659Z,1.98
2023-05-21T18:24:28.827Z,1.80
2023-05-21T18:27:12.421Z,2.30
2023-05-21T18:29:45.013Z,2.50
2023-05-21T18:32:29.427Z,3.00
2023-05-21T18:35:02.610Z,2.37
2023-05-21T18:37:48.667Z,2.42
2023-05-21T18:43:06.190Z,2.15
2023-05-21T18:45:39.182Z,2.10
2023-05-21T18:48:21.293Z,2.15
2023-05-21T18:50:53.951Z,2.30
2023-05-21T18:53:36.344Z,2.20
2023-05-21T18:56:10.542Z,2.20
2023-05-21T18:58:54.276Z,2.30
2023-05-21T19:01:36.483Z,2.50
2023-05-21T19:04:09.857Z,2.42
2023-05-21T19:06:51.997Z,2.90
2023-05-21T19:09:26.203Z,2.42
2023-05-21T19:12:10.785Z,2.45
2023-05-21T19:14:45.039Z,2.55
2023-05-21T19:17:27.002Z,3.22
2023-05-21T19:20:10.410Z,3.20
2023-05-21T19:22:55.886Z,2.70
2023-05-21T19:25:38.537Z,3.10
2023-05-21T19:28:20.774Z,7.80
2023-05-21T19:30:53.709Z,4.08
2023-05-21T19:33:36.539Z,3.40
2023-05-21T19:36:09.389Z,3.70
2023-05-21T19:38:52.281Z,3.37
2023-05-21T19:41:24.963Z,3.40
2023-05-21T19:44:09.110Z,3.27
2023-05-21T19:46:52.729Z,2.83
2023-05-21T19:49:25.347Z,3.92
2023-05-21T19:52:10.489Z,4.12
2023-05-21T19:54:43.247Z,3.17
2023-05-21T19:57:27.838Z,4.03
2023-05-21T20:00:14.058Z,3.25
2023-05-21T20:02:46.551Z,3.00
2023-05-21T20:05:30.552Z,3.10
2023-05-21T20:08:04.029Z,3.17
2023-05-21T20:10:49.483Z,3.60
2023-05-21T20:13:23.360Z,3.62
2023-05-21T20:16:06.285Z,3.33
2023-05-21T20:18:39.459Z,3.95
2023-05-21T20:21:21.771Z,3.42
2023-05-21T20:23:56.152Z,4.20
2023-05-21T20:26:40.951Z,4.28
2023-05-21T20:29:13.810Z,3.80
2023-05-21T20:31:47.263Z,3.98
2023-05-21T20:34:30.107Z,3.60
2023-05-21T20:37:03.599Z,3.35
2023-05-21T20:39:49.758Z,3.47
2023-05-21T20:42:23.848Z,3.03
2023-05-21T20:45:08.605Z,2.90
2023-05-21T20:47:41.444Z,2.67
2023-05-21T20:50:28.576Z,3.47
2023-05-21T20:53:16.003Z,3.22
2023-05-21T20:56:06.773Z,3.90
2023-05-21T20:58:52.790Z,3.20
2023-05-21T21:01:37.025Z,4.15
2023-05-21T21:04:10.012Z,3.30
2023-05-21T21:06:52.151Z,3.50
2023-05-21T21:09:36.098Z,3.62
2023-05-21T21:12:24.775Z,4.17
2023-05-21T21:14:57.702Z,3.70
2023-05-21T21:17:30.304Z,3.77
2023-05-21T21:20:13.910Z,4.05
2023-05-21T21:22:56.094Z,4.22
2023-05-21T21:25:28.681Z,5.55
2023-05-21T21:28:11.003Z,3.92
2023-05-21T21:30:54.500Z,3.95
2023-05-21T21:33:27.182Z,4.10
2023-05-21T21:36:00.275Z,4.20
2023-05-21T21:38:42.302Z,4.40
2023-05-21T21:41:24.372Z,3.98
2023-05-21T21:43:56.927Z,4.55
2023-05-21T21:46:39.269Z,5.03
2023-05-21T21:49:11.782Z,4.87
2023-05-21T21:51:57.990Z,4.15
2023-05-21T21:54:30.767Z,4.85
2023-05-21T21:57:12.741Z,4.53
2023-05-21T21:59:45.396Z,4.10
2023-05-21T22:02:27.606Z,4.60
2023-05-21T22:05:00.401Z,4.37
2023-05-21T22:07:49.213Z,4.25
2023-05-21T22:10:21.769Z,4.45
2023-05-21T22:13:06.711Z,4.20
2023-05-21T22:15:39.876Z,5.10
2023-05-21T22:18:36.367Z,4.65
2023-05-21T22:20:57.879Z,4.60
2023-05-21T22:23:40.133Z,4.53
2023-05-21T22:26:12.874Z,4.53
2023-05-21T22:28:56.829Z,3.70
2023-05-21T22:31:29.660Z,4.25
2023-05-21T22:34:14.029Z,3.92
2023-05-21T22:36:48.151Z,4.65
2023-05-21T22:39:31.732Z,4.40
2023-05-21T22:42:04.499Z,4.10
2023-05-21T22:44:48.364Z,3.90
2023-05-21T22:47:32.419Z,4.53
2023-05-21T22:50:05.195Z,5.12
2023-05-21T22:52:49.447Z,5.58
2023-05-21T22:55:31.745Z,4.47
2023-05-21T22:58:04.379Z,4.58
2023-05-21T23:00:46.752Z,4.80
2023-05-21T23:03:19.331Z,4.87
2023-05-21T23:06:03.225Z,4.67
2023-05-21T23:08:35.946Z,4.40
2023-05-21T23:11:21.230Z,4.62
2023-05-21T23:13:53.870Z,6.28
2023-05-21T23:16:26.279Z,5.42
2023-05-21T23:19:08.318Z,5.37
2023-05-21T23:21:41.337Z,5.20
2023-05-21T23:24:25.124Z,5.00
2023-05-21T23:27:07.347Z,5.53
2023-05-21T23:29:40.066Z,5.28
2023-05-21T23:32:23.458Z,5.92
2023-05-21T23:34:57.168Z,4.95
2023-05-21T23:37:40.627Z,5.33
2023-05-21T23:40:22.688Z,5.22
2023-05-21T23:42:55.409Z,5.17
2023-05-21T23:45:38.903Z,5.30
2023-05-21T23:48:16.240Z,5.83
2023-05-21T23:50:48.803Z,6.40
2023-05-21T23:53:30.917Z,5.65
2023-05-21T23:56:03.575Z,6.17
2023-05-21T23:58:45.704Z,8.03
